sensor_id;sensor_type;location;lat;lon;timestamp;temperature;humidity
40123;DHT22;25832;45.490;4.912;2023-10-13T00:02:02;19.00;99.90
40123;DHT22;25832;45.490;4.912;2023-10-13T00:04:29;19.00;99.90
40123;DHT22;25832;45.490;4.912;2023-10-13T00:06:55;18.90;99.90
40123;DHT22;25832;45.490;4.912;2023-10-13T00:09:26;18.90;99.90
40123;DHT22;25832;45.490;4.912;2023-10-13T00:11:58;18.90;99.90
40123;DHT22;25832;45.490;4.912;2023-10-13T00:14:24;18.90;99.90
40123;DHT22;25832;45.490;4.912;2023-10-13T00:17:01;18.90;99.90
40123;DHT22;25832;45.490;4.912;2023-10-13T00:19:35;18.90;99.90
40123;DHT22;25832;45.490;4.912;2023-10-13T00:22:10;18.90;99.90
40123;DHT22;25832;45.490;4.912;2023-10-13T00:24:37;18.90;99.90
40123;DHT22;25832;45.490;4.912;2023-10-13T00:27:18;18.90;99.90
40123;DHT22;25832;45.490;4.912;2023-10-13T00:29:54;18.90;99.90
40123;DHT22;25832;45.490;4.912;2023-10-13T00:32:40;18.90;99.90
40123;DHT22;25832;45.490;4.912;2023-10-13T00:35:10;18.90;99.90
40123;DHT22;25832;45.490;4.912;2023-10-13T00:37:38;18.80;99.90
40123;DHT22;25832;45.490;4.912;2023-10-13T00:40:10;18.80;99.90
40123;DHT22;25832;45.490;4.912;2023-10-13T00:42:53;18.80;99.90
40123;DHT22;25832;45.490;4.912;2023-10-13T00:45:19;18.80;99.90
40123;DHT22;25832;45.490;4.912;2023-10-13T00:47:45;18.80;99.90
40123;DHT22;25832;45.490;4.912;2023-10-13T00:50:23;18.80;99.90
40123;DHT22;25832;45.490;4.912;2023-10-13T00:52:49;18.80;99.90
40123;DHT22;25832;45.490;4.912;2023-10-13T00:55:18;18.80;99.90
40123;DHT22;25832;45.490;4.912;2023-10-13T00:57:44;18.80;99.90
40123;DHT22;25832;45.490;4.912;2023-10-13T01:00:12;18.80;99.90
40123;DHT22;25832;45.490;4.912;2023-10-13T01:02:47;18.70;99.90
40123;DHT22;25832;45.490;4.912;2023-10-13T01:05:21;18.70;99.90
40123;DHT22;25832;45.490;4.912;2023-10-13T01:07:48;18.70;99.90
40123;DHT22;25832;45.490;4.912;2023-10-13T01:10:18;18.70;99.90
40123;DHT22;25832;45.490;4.912;2023-10-13T01:12:48;18.70;99.90
40123;DHT22;25832;45.490;4.912;2023-10-13T01:15:18;18.70;99.90
40123;DHT22;25832;45.490;4.912;2023-10-13T01:17:46;18.70;99.90
40123;DHT22;25832;45.490;4.912;2023-10-13T01:20:15;18.70;99.90
40123;DHT22;25832;45.490;4.912;2023-10-13T01:22:51;18.60;99.90
40123;DHT22;25832;45.490;4.912;2023-10-13T01:25:23;18.60;99.90
40123;DHT22;25832;45.490;4.912;2023-10-13T01:27:53;18.60;99.90
40123;DHT22;25832;45.490;4.912;2023-10-13T01:30:19;18.60;99.90
40123;DHT22;25832;45.490;4.912;2023-10-13T01:32:50;18.60;99.90
40123;DHT22;25832;45.490;4.912;2023-10-13T01:35:17;18.60;99.90
40123;DHT22;25832;45.490;4.912;2023-10-13T01:37:52;18.50;99.90
40123;DHT22;25832;45.490;4.912;2023-10-13T01:40:17;18.50;99.90
40123;DHT22;25832;45.490;4.912;2023-10-13T01:42:49;18.50;99.90
40123;DHT22;25832;45.490;4.912;2023-10-13T01:45:21;18.50;99.90
40123;DHT22;25832;45.490;4.912;2023-10-13T01:47:47;18.50;99.90
40123;DHT22;25832;45.490;4.912;2023-10-13T01:50:16;18.50;99.90
40123;DHT22;25832;45.490;4.912;2023-10-13T01:52:47;18.50;99.90
40123;DHT22;25832;45.490;4.912;2023-10-13T01:55:13;18.30;99.90
40123;DHT22;25832;45.490;4.912;2023-10-13T01:57:39;18.30;99.90
40123;DHT22;25832;45.490;4.912;2023-10-13T02:00:09;18.30;99.90
40123;DHT22;25832;45.490;4.912;2023-10-13T02:02:45;18.30;99.90
40123;DHT22;25832;45.490;4.912;2023-10-13T02:05:15;18.30;99.90
40123;DHT22;25832;45.490;4.912;2023-10-13T02:07:42;18.20;99.90
40123;DHT22;25832;45.490;4.912;2023-10-13T02:10:11;18.20;99.90
40123;DHT22;25832;45.490;4.912;2023-10-13T02:12:38;18.20;99.90
40123;DHT22;25832;45.490;4.912;2023-10-13T02:15:12;18.20;99.90
40123;DHT22;25832;45.490;4.912;2023-10-13T02:17:47;18.10;99.90
40123;DHT22;25832;45.490;4.912;2023-10-13T02:20:17;18.10;99.90
40123;DHT22;25832;45.490;4.912;2023-10-13T02:22:44;18.10;99.90
40123;DHT22;25832;45.490;4.912;2023-10-13T02:25:19;18.00;99.90
40123;DHT22;25832;45.490;4.912;2023-10-13T02:28:04;18.00;99.90
40123;DHT22;25832;45.490;4.912;2023-10-13T02:30:38;17.90;99.90
40123;DHT22;25832;45.490;4.912;2023-10-13T02:33:04;18.00;99.90
40123;DHT22;25832;45.490;4.912;2023-10-13T02:35:32;17.90;99.90
40123;DHT22;25832;45.490;4.912;2023-10-13T02:38:09;17.90;99.90
40123;DHT22;25832;45.490;4.912;2023-10-13T02:40:38;17.90;99.90
40123;DHT22;25832;45.490;4.912;2023-10-13T02:43:05;17.90;99.90
40123;DHT22;25832;45.490;4.912;2023-10-13T02:45:32;17.90;99.90
40123;DHT22;25832;45.490;4.912;2023-10-13T02:47:58;17.90;99.90
40123;DHT22;25832;45.490;4.912;2023-10-13T02:50:43;17.90;99.90
40123;DHT22;25832;45.490;4.912;2023-10-13T02:53:10;17.90;99.90
40123;DHT22;25832;45.490;4.912;2023-10-13T02:55:55;17.80;99.90
40123;DHT22;25832;45.490;4.912;2023-10-13T02:58:22;17.80;99.90
40123;DHT22;25832;45.490;4.912;2023-10-13T03:00:48;17.80;99.90
40123;DHT22;25832;45.490;4.912;2023-10-13T03:03:14;17.80;99.90
40123;DHT22;25832;45.490;4.912;2023-10-13T03:05:44;17.80;99.90
40123;DHT22;25832;45.490;4.912;2023-10-13T03:08:10;17.80;99.90
40123;DHT22;25832;45.490;4.912;2023-10-13T03:10:37;17.80;99.90
40123;DHT22;25832;45.490;4.912;2023-10-13T03:13:10;17.80;99.90
40123;DHT22;25832;45.490;4.912;2023-10-13T03:15:36;17.70;99.90
40123;DHT22;25832;45.490;4.912;2023-10-13T03:18:02;17.70;99.90
40123;DHT22;25832;45.490;4.912;2023-10-13T03:20:28;17.70;99.90
40123;DHT22;25832;45.490;4.912;2023-10-13T03:22:58;17.70;99.90
40123;DHT22;25832;45.490;4.912;2023-10-13T03:25:24;17.70;99.90
40123;DHT22;25832;45.490;4.912;2023-10-13T03:28:08;17.70;99.90
40123;DHT22;25832;45.490;4.912;2023-10-13T03:30:37;17.70;99.90
40123;DHT22;25832;45.490;4.912;2023-10-13T03:33:07;17.60;99.90
40123;DHT22;25832;45.490;4.912;2023-10-13T03:35:37;17.60;99.90
40123;DHT22;25832;45.490;4.912;2023-10-13T03:38:04;17.60;99.90
40123;DHT22;25832;45.490;4.912;2023-10-13T03:40:37;17.50;99.90
40123;DHT22;25832;45.490;4.912;2023-10-13T03:43:04;17.50;99.90
40123;DHT22;25832;45.490;4.912;2023-10-13T03:45:40;17.50;99.90
40123;DHT22;25832;45.490;4.912;2023-10-13T03:48:10;17.50;99.90
40123;DHT22;25832;45.490;4.912;2023-10-13T03:50:38;17.50;99.90
40123;DHT22;25832;45.490;4.912;2023-10-13T03:53:23;17.50;99.90
40123;DHT22;25832;45.490;4.912;2023-10-13T03:55:51;17.50;99.90
40123;DHT22;25832;45.490;4.912;2023-10-13T03:58:34;17.40;99.90
40123;DHT22;25832;45.490;4.912;2023-10-13T04:01:00;17.40;99.90
40123;DHT22;25832;45.490;4.912;2023-10-13T04:03:26;17.40;99.90
40123;DHT22;25832;45.490;4.912;2023-10-13T04:06:08;17.40;99.90
40123;DHT22;25832;45.490;4.912;2023-10-13T04:08:34;17.40;99.90
40123;DHT22;25832;45.490;4.912;2023-10-13T04:11:09;17.30;99.90
40123;DHT22;25832;45.490;4.912;2023-10-13T04:13:53;17.30;99.90
40123;DHT22;25832;45.490;4.912;2023-10-13T04:16:37;17.30;99.90
40123;DHT22;25832;45.490;4.912;2023-10-13T04:19:17;17.30;99.90
40123;DHT22;25832;45.490;4.912;2023-10-13T04:21:52;17.20;99.90
40123;DHT22;25832;45.490;4.912;2023-10-13T04:24:25;17.20;99.90
40123;DHT22;25832;45.490;4.912;2023-10-13T04:27:14;17.20;99.90
40123;DHT22;25832;45.490;4.912;2023-10-13T04:29:41;17.20;99.90
40123;DHT22;25832;45.490;4.912;2023-10-13T04:32:22;17.20;99.90
40123;DHT22;25832;45.490;4.912;2023-10-13T04:34:55;17.20;99.90
40123;DHT22;25832;45.490;4.912;2023-10-13T04:37:25;17.20;99.90
40123;DHT22;25832;45.490;4.912;2023-10-13T04:40:13;17.20;99.90
40123;DHT22;25832;45.490;4.912;2023-10-13T04:42:40;17.20;99.90
40123;DHT22;25832;45.490;4.912;2023-10-13T04:45:29;17.10;99.90
40123;DHT22;25832;45.490;4.912;2023-10-13T04:47:59;17.00;99.90
40123;DHT22;25832;45.490;4.912;2023-10-13T04:50:59;17.00;99.90
40123;DHT22;25832;45.490;4.912;2023-10-13T04:53:45;17.00;99.90
40123;DHT22;25832;45.490;4.912;2023-10-13T04:56:29;17.00;99.90
40123;DHT22;25832;45.490;4.912;2023-10-13T04:59:07;17.00;99.90
40123;DHT22;25832;45.490;4.912;2023-10-13T05:01:52;17.00;99.90
40123;DHT22;25832;45.490;4.912;2023-10-13T05:04:36;17.00;99.90
40123;DHT22;25832;45.490;4.912;2023-10-13T05:07:24;17.00;99.90
40123;DHT22;25832;45.490;4.912;2023-10-13T05:10:09;17.00;99.90
40123;DHT22;25832;45.490;4.912;2023-10-13T05:12:53;17.00;99.90
40123;DHT22;25832;45.490;4.912;2023-10-13T05:16:03;17.00;99.90
40123;DHT22;25832;45.490;4.912;2023-10-13T05:18:48;17.00;99.90
40123;DHT22;25832;45.490;4.912;2023-10-13T05:21:32;16.90;99.90
40123;DHT22;25832;45.490;4.912;2023-10-13T05:24:16;16.90;99.90
40123;DHT22;25832;45.490;4.912;2023-10-13T05:27:00;16.90;99.90
40123;DHT22;25832;45.490;4.912;2023-10-13T05:29:46;16.90;99.90
40123;DHT22;25832;45.490;4.912;2023-10-13T05:32:31;16.90;99.90
40123;DHT22;25832;45.490;4.912;2023-10-13T05:35:16;16.90;99.90
40123;DHT22;25832;45.490;4.912;2023-10-13T05:38:00;16.80;99.90
40123;DHT22;25832;45.490;4.912;2023-10-13T05:41:11;16.80;99.90
40123;DHT22;25832;45.490;4.912;2023-10-13T05:43:56;16.80;99.90
40123;DHT22;25832;45.490;4.912;2023-10-13T05:46:40;16.80;99.90
40123;DHT22;25832;45.490;4.912;2023-10-13T05:49:15;16.80;99.90
40123;DHT22;25832;45.490;4.912;2023-10-13T05:51:41;16.80;99.90
40123;DHT22;25832;45.490;4.912;2023-10-13T05:54:07;16.80;99.90
40123;DHT22;25832;45.490;4.912;2023-10-13T05:56:49;16.80;99.90
40123;DHT22;25832;45.490;4.912;2023-10-13T05:59:35;16.80;99.90
40123;DHT22;25832;45.490;4.912;2023-10-13T06:02:21;16.80;99.90
40123;DHT22;25832;45.490;4.912;2023-10-13T06:05:06;16.80;99.90
40123;DHT22;25832;45.490;4.912;2023-10-13T06:07:51;16.80;99.90
40123;DHT22;25832;45.490;4.912;2023-10-13T06:10:36;16.80;99.90
40123;DHT22;25832;45.490;4.912;2023-10-13T06:13:21;16.80;99.90
40123;DHT22;25832;45.490;4.912;2023-10-13T06:16:23;16.80;99.90
40123;DHT22;25832;45.490;4.912;2023-10-13T06:19:07;16.90;99.90
40123;DHT22;25832;45.490;4.912;2023-10-13T06:21:51;17.10;99.90
40123;DHT22;25832;45.490;4.912;2023-10-13T06:24:35;17.30;99.90
40123;DHT22;25832;45.490;4.912;2023-10-13T06:27:19;17.40;99.90
40123;DHT22;25832;45.490;4.912;2023-10-13T06:30:04;17.60;99.90
40123;DHT22;25832;45.490;4.912;2023-10-13T06:32:30;17.70;99.90
40123;DHT22;25832;45.490;4.912;2023-10-13T06:34:58;17.70;99.90
40123;DHT22;25832;45.490;4.912;2023-10-13T06:37:26;17.80;99.90
40123;DHT22;25832;45.490;4.912;2023-10-13T06:40:11;17.80;99.90
40123;DHT22;25832;45.490;4.912;2023-10-13T06:42:47;17.90;99.90
40123;DHT22;25832;45.490;4.912;2023-10-13T06:45:13;17.90;99.90
40123;DHT22;25832;45.490;4.912;2023-10-13T06:47:39;18.00;99.90
40123;DHT22;25832;45.490;4.912;2023-10-13T06:50:11;18.00;99.90
40123;DHT22;25832;45.490;4.912;2023-10-13T06:52:48;17.90;99.90
40123;DHT22;25832;45.490;4.912;2023-10-13T06:55:14;17.90;99.90
40123;DHT22;25832;45.490;4.912;2023-10-13T06:57:45;17.90;99.90
40123;DHT22;25832;45.490;4.912;2023-10-13T07:00:12;18.00;99.90
40123;DHT22;25832;45.490;4.912;2023-10-13T07:02:51;18.00;99.90
40123;DHT22;25832;45.490;4.912;2023-10-13T07:05:18;18.10;99.90
40123;DHT22;25832;45.490;4.912;2023-10-13T07:07:45;18.20;99.90
40123;DHT22;25832;45.490;4.912;2023-10-13T07:10:12;18.30;99.90
40123;DHT22;25832;45.490;4.912;2023-10-13T07:12:38;18.30;99.90
40123;DHT22;25832;45.490;4.912;2023-10-13T07:15:09;18.40;99.90
40123;DHT22;25832;45.490;4.912;2023-10-13T07:17:44;18.50;99.90
40123;DHT22;25832;45.490;4.912;2023-10-13T07:20:10;18.60;99.90
40123;DHT22;25832;45.490;4.912;2023-10-13T07:22:53;18.60;99.90
40123;DHT22;25832;45.490;4.912;2023-10-13T07:25:37;18.70;99.90
40123;DHT22;25832;45.490;4.912;2023-10-13T07:28:06;18.80;99.90
40123;DHT22;25832;45.490;4.912;2023-10-13T07:30:36;18.90;99.90
40123;DHT22;25832;45.490;4.912;2023-10-13T07:33:07;19.00;99.90
40123;DHT22;25832;45.490;4.912;2023-10-13T07:35:38;19.00;99.90
40123;DHT22;25832;45.490;4.912;2023-10-13T07:38:04;19.10;99.90
40123;DHT22;25832;45.490;4.912;2023-10-13T07:40:33;19.20;99.90
40123;DHT22;25832;45.490;4.912;2023-10-13T07:42:59;19.20;99.90
40123;DHT22;25832;45.490;4.912;2023-10-13T07:45:29;19.20;99.90
40123;DHT22;25832;45.490;4.912;2023-10-13T07:48:03;19.20;99.90
40123;DHT22;25832;45.490;4.912;2023-10-13T07:50:41;19.20;99.90
40123;DHT22;25832;45.490;4.912;2023-10-13T07:53:07;19.20;99.90
40123;DHT22;25832;45.490;4.912;2023-10-13T07:55:49;19.30;99.90
40123;DHT22;25832;45.490;4.912;2023-10-13T07:58:28;19.30;99.90
40123;DHT22;25832;45.490;4.912;2023-10-13T08:00:57;19.40;99.90
40123;DHT22;25832;45.490;4.912;2023-10-13T08:03:41;19.40;99.90
40123;DHT22;25832;45.490;4.912;2023-10-13T08:06:17;19.40;99.90
40123;DHT22;25832;45.490;4.912;2023-10-13T08:08:43;19.40;99.90
40123;DHT22;25832;45.490;4.912;2023-10-13T08:11:10;19.40;99.90
40123;DHT22;25832;45.490;4.912;2023-10-13T08:13:41;19.40;99.90
40123;DHT22;25832;45.490;4.912;2023-10-13T08:16:12;19.50;99.90
40123;DHT22;25832;45.490;4.912;2023-10-13T08:18:47;19.50;99.90
40123;DHT22;25832;45.490;4.912;2023-10-13T08:21:18;19.60;99.90
40123;DHT22;25832;45.490;4.912;2023-10-13T08:23:51;19.60;99.90
40123;DHT22;25832;45.490;4.912;2023-10-13T08:26:22;19.60;99.90
40123;DHT22;25832;45.490;4.912;2023-10-13T08:29:06;19.60;99.90
40123;DHT22;25832;45.490;4.912;2023-10-13T08:31:45;19.70;99.90
40123;DHT22;25832;45.490;4.912;2023-10-13T08:34:34;19.70;99.90
40123;DHT22;25832;45.490;4.912;2023-10-13T08:37:09;19.80;99.90
40123;DHT22;25832;45.490;4.912;2023-10-13T08:39:51;19.80;99.90
40123;DHT22;25832;45.490;4.912;2023-10-13T08:45:14;19.90;99.90
40123;DHT22;25832;45.490;4.912;2023-10-13T08:47:50;20.00;99.90
40123;DHT22;25832;45.490;4.912;2023-10-13T08:50:35;20.00;99.90
40123;DHT22;25832;45.490;4.912;2023-10-13T08:53:26;20.10;99.90
40123;DHT22;25832;45.490;4.912;2023-10-13T08:56:11;20.20;99.90
40123;DHT22;25832;45.490;4.912;2023-10-13T08:58:50;20.30;99.90
40123;DHT22;25832;45.490;4.912;2023-10-13T09:01:29;20.40;99.90
40123;DHT22;25832;45.490;4.912;2023-10-13T09:04:01;20.40;99.90
40123;DHT22;25832;45.490;4.912;2023-10-13T09:07:03;20.50;99.90
40123;DHT22;25832;45.490;4.912;2023-10-13T09:12:24;20.50;99.90
40123;DHT22;25832;45.490;4.912;2023-10-13T09:15:09;20.60;99.90
40123;DHT22;25832;45.490;4.912;2023-10-13T09:17:42;20.70;99.90
40123;DHT22;25832;45.490;4.912;2023-10-13T09:20:13;20.80;99.90
40123;DHT22;25832;45.490;4.912;2023-10-13T09:22:52;20.90;99.90
40123;DHT22;25832;45.490;4.912;2023-10-13T09:25:31;21.00;99.90
40123;DHT22;25832;45.490;4.912;2023-10-13T09:28:00;21.10;99.90
40123;DHT22;25832;45.490;4.912;2023-10-13T09:30:26;21.10;99.90
40123;DHT22;25832;45.490;4.912;2023-10-13T09:33:04;21.20;99.90
40123;DHT22;25832;45.490;4.912;2023-10-13T09:35:31;21.30;99.90
40123;DHT22;25832;45.490;4.912;2023-10-13T09:38:00;21.50;99.90
40123;DHT22;25832;45.490;4.912;2023-10-13T09:40:28;21.60;99.90
40123;DHT22;25832;45.490;4.912;2023-10-13T09:43:04;21.70;99.90
40123;DHT22;25832;45.490;4.912;2023-10-13T09:45:41;21.80;99.90
40123;DHT22;25832;45.490;4.912;2023-10-13T09:48:32;22.00;99.90
40123;DHT22;25832;45.490;4.912;2023-10-13T09:51:03;22.10;99.90
40123;DHT22;25832;45.490;4.912;2023-10-13T09:53:32;22.20;99.90
40123;DHT22;25832;45.490;4.912;2023-10-13T10:01:38;22.30;99.90
40123;DHT22;25832;45.490;4.912;2023-10-13T10:04:08;22.30;99.90
40123;DHT22;25832;45.490;4.912;2023-10-13T10:06:36;22.20;99.90
40123;DHT22;25832;45.490;4.912;2023-10-13T10:09:09;22.40;99.90
40123;DHT22;25832;45.490;4.912;2023-10-13T10:17:11;22.50;99.90
40123;DHT22;25832;45.490;4.912;2023-10-13T10:19:50;22.60;99.90
40123;DHT22;25832;45.490;4.912;2023-10-13T10:22:29;22.70;99.80
40123;DHT22;25832;45.490;4.912;2023-10-13T10:25:03;22.70;99.60
40123;DHT22;25832;45.490;4.912;2023-10-13T10:27:33;22.70;99.90
40123;DHT22;25832;45.490;4.912;2023-10-13T10:30:00;22.70;99.90
40123;DHT22;25832;45.490;4.912;2023-10-13T10:32:38;22.90;99.60
40123;DHT22;25832;45.490;4.912;2023-10-13T10:35:07;22.90;99.30
40123;DHT22;25832;45.490;4.912;2023-10-13T10:37:35;23.00;99.20
40123;DHT22;25832;45.490;4.912;2023-10-13T10:40:03;23.10;98.50
40123;DHT22;25832;45.490;4.912;2023-10-13T10:42:33;23.10;98.60
40123;DHT22;25832;45.490;4.912;2023-10-13T10:44:59;23.20;98.60
40123;DHT22;25832;45.490;4.912;2023-10-13T10:47:31;23.20;98.70
40123;DHT22;25832;45.490;4.912;2023-10-13T10:49:58;23.30;98.20
40123;DHT22;25832;45.490;4.912;2023-10-13T10:52:27;23.40;98.40
40123;DHT22;25832;45.490;4.912;2023-10-13T10:55:00;23.50;98.20
40123;DHT22;25832;45.490;4.912;2023-10-13T10:57:26;23.50;97.90
40123;DHT22;25832;45.490;4.912;2023-10-13T10:59:54;23.50;97.90
40123;DHT22;25832;45.490;4.912;2023-10-13T11:02:41;23.30;97.90
40123;DHT22;25832;45.490;4.912;2023-10-13T11:05:07;23.30;97.90
40123;DHT22;25832;45.490;4.912;2023-10-13T11:07:36;23.40;97.70
40123;DHT22;25832;45.490;4.912;2023-10-13T11:10:10;23.30;97.50
40123;DHT22;25832;45.490;4.912;2023-10-13T11:13:05;23.40;97.40
40123;DHT22;25832;45.490;4.912;2023-10-13T11:15:45;23.40;96.90
40123;DHT22;25832;45.490;4.912;2023-10-13T11:18:11;23.40;97.20
40123;DHT22;25832;45.490;4.912;2023-10-13T11:20:49;23.30;97.10
40123;DHT22;25832;45.490;4.912;2023-10-13T11:23:24;23.30;96.80
40123;DHT22;25832;45.490;4.912;2023-10-13T11:25:59;23.20;96.80
40123;DHT22;25832;45.490;4.912;2023-10-13T11:28:25;23.20;97.10
40123;DHT22;25832;45.490;4.912;2023-10-13T11:30:55;23.20;97.10
40123;DHT22;25832;45.490;4.912;2023-10-13T11:33:46;23.30;96.90
40123;DHT22;25832;45.490;4.912;2023-10-13T11:36:12;23.30;97.00
40123;DHT22;25832;45.490;4.912;2023-10-13T11:38:44;23.40;96.90
40123;DHT22;25832;45.490;4.912;2023-10-13T11:41:12;23.40;96.70
40123;DHT22;25832;45.490;4.912;2023-10-13T11:43:46;23.50;96.50
40123;DHT22;25832;45.490;4.912;2023-10-13T11:46:20;23.40;96.50
40123;DHT22;25832;45.490;4.912;2023-10-13T11:49:03;23.50;96.50
40123;DHT22;25832;45.490;4.912;2023-10-13T11:51:49;23.50;96.60
40123;DHT22;25832;45.490;4.912;2023-10-13T11:54:16;23.50;96.50
40123;DHT22;25832;45.490;4.912;2023-10-13T11:56:46;23.40;96.50
40123;DHT22;25832;45.490;4.912;2023-10-13T11:59:12;23.50;96.90
40123;DHT22;25832;45.490;4.912;2023-10-13T12:01:52;23.50;97.10
40123;DHT22;25832;45.490;4.912;2023-10-13T12:04:37;23.50;96.90
40123;DHT22;25832;45.490;4.912;2023-10-13T12:07:09;23.40;97.20
40123;DHT22;25832;45.490;4.912;2023-10-13T12:09:52;23.40;97.20
40123;DHT22;25832;45.490;4.912;2023-10-13T12:12:38;23.50;97.10
40123;DHT22;25832;45.490;4.912;2023-10-13T12:15:09;23.60;97.20
40123;DHT22;25832;45.490;4.912;2023-10-13T12:17:35;23.70;96.70
40123;DHT22;25832;45.490;4.912;2023-10-13T12:20:05;23.80;96.70
40123;DHT22;25832;45.490;4.912;2023-10-13T12:22:35;23.80;96.40
40123;DHT22;25832;45.490;4.912;2023-10-13T12:25:07;23.80;96.70
40123;DHT22;25832;45.490;4.912;2023-10-13T12:27:53;23.70;96.80
40123;DHT22;25832;45.490;4.912;2023-10-13T12:30:23;23.80;96.30
40123;DHT22;25832;45.490;4.912;2023-10-13T12:33:02;23.80;96.80
40123;DHT22;25832;45.490;4.912;2023-10-13T12:35:35;23.80;96.90
40123;DHT22;25832;45.490;4.912;2023-10-13T12:38:10;23.90;96.40
40123;DHT22;25832;45.490;4.912;2023-10-13T12:41:04;23.80;96.30
40123;DHT22;25832;45.490;4.912;2023-10-13T12:43:49;23.80;96.20
40123;DHT22;25832;45.490;4.912;2023-10-13T12:46:33;23.70;96.10
40123;DHT22;25832;45.490;4.912;2023-10-13T12:49:17;23.70;96.10
40123;DHT22;25832;45.490;4.912;2023-10-13T12:52:01;23.80;95.80
40123;DHT22;25832;45.490;4.912;2023-10-13T12:54:26;23.80;96.40
40123;DHT22;25832;45.490;4.912;2023-10-13T12:57:01;23.90;96.60
40123;DHT22;25832;45.490;4.912;2023-10-13T12:59:26;23.90;96.00
40123;DHT22;25832;45.490;4.912;2023-10-13T13:01:53;23.90;96.00
40123;DHT22;25832;45.490;4.912;2023-10-13T13:04:19;23.90;95.80
40123;DHT22;25832;45.490;4.912;2023-10-13T13:06:49;23.90;95.80
40123;DHT22;25832;45.490;4.912;2023-10-13T13:09:15;23.90;95.50
40123;DHT22;25832;45.490;4.912;2023-10-13T13:11:41;23.90;95.50
40123;DHT22;25832;45.490;4.912;2023-10-13T13:14:07;23.90;95.80
40123;DHT22;25832;45.490;4.912;2023-10-13T13:16:36;23.90;95.60
40123;DHT22;25832;45.490;4.912;2023-10-13T13:19:04;23.90;95.60
40123;DHT22;25832;45.490;4.912;2023-10-13T13:21:39;23.80;96.00
40123;DHT22;25832;45.490;4.912;2023-10-13T13:24:06;23.90;95.50
40123;DHT22;25832;45.490;4.912;2023-10-13T13:26:39;23.90;95.50
40123;DHT22;25832;45.490;4.912;2023-10-13T13:29:08;23.90;95.50
40123;DHT22;25832;45.490;4.912;2023-10-13T13:31:35;24.00;95.50
40123;DHT22;25832;45.490;4.912;2023-10-13T13:34:08;24.10;95.20
40123;DHT22;25832;45.490;4.912;2023-10-13T13:36:35;24.10;94.70
40123;DHT22;25832;45.490;4.912;2023-10-13T13:39:01;24.10;94.90
40123;DHT22;25832;45.490;4.912;2023-10-13T13:41:27;24.00;94.80
40123;DHT22;25832;45.490;4.912;2023-10-13T13:43:52;24.00;94.90
40123;DHT22;25832;45.490;4.912;2023-10-13T13:46:24;23.90;94.70
40123;DHT22;25832;45.490;4.912;2023-10-13T13:48:53;23.90;94.60
40123;DHT22;25832;45.490;4.912;2023-10-13T13:51:29;23.90;94.70
40123;DHT22;25832;45.490;4.912;2023-10-13T13:53:58;24.00;94.60
40123;DHT22;25832;45.490;4.912;2023-10-13T13:56:24;24.00;94.80
40123;DHT22;25832;45.490;4.912;2023-10-13T13:58:53;24.10;95.10
40123;DHT22;25832;45.490;4.912;2023-10-13T14:01:20;24.20;94.60
40123;DHT22;25832;45.490;4.912;2023-10-13T14:03:52;24.20;94.60
40123;DHT22;25832;45.490;4.912;2023-10-13T14:06:23;24.20;94.70
40123;DHT22;25832;45.490;4.912;2023-10-13T14:08:50;24.20;94.50
40123;DHT22;25832;45.490;4.912;2023-10-13T14:11:20;24.20;94.70
40123;DHT22;25832;45.490;4.912;2023-10-13T14:14:12;24.10;94.70
40123;DHT22;25832;45.490;4.912;2023-10-13T14:16:42;24.10;94.70
40123;DHT22;25832;45.490;4.912;2023-10-13T14:19:15;24.00;94.90
40123;DHT22;25832;45.490;4.912;2023-10-13T14:21:54;23.90;95.00
40123;DHT22;25832;45.490;4.912;2023-10-13T14:24:20;24.00;94.80
40123;DHT22;25832;45.490;4.912;2023-10-13T14:27:01;24.00;95.10
40123;DHT22;25832;45.490;4.912;2023-10-13T14:29:52;24.00;95.20
40123;DHT22;25832;45.490;4.912;2023-10-13T14:32:19;24.10;95.20
40123;DHT22;25832;45.490;4.912;2023-10-13T14:34:46;24.10;95.00
40123;DHT22;25832;45.490;4.912;2023-10-13T14:37:14;24.10;95.00
40123;DHT22;25832;45.490;4.912;2023-10-13T14:39:46;24.00;95.20
40123;DHT22;25832;45.490;4.912;2023-10-13T14:42:12;24.00;95.10
40123;DHT22;25832;45.490;4.912;2023-10-13T14:44:37;24.00;95.10
40123;DHT22;25832;45.490;4.912;2023-10-13T14:47:03;23.90;95.20
40123;DHT22;25832;45.490;4.912;2023-10-13T14:49:34;23.90;95.10
40123;DHT22;25832;45.490;4.912;2023-10-13T14:52:01;23.90;95.20
40123;DHT22;25832;45.490;4.912;2023-10-13T14:54:27;23.80;95.30
40123;DHT22;25832;45.490;4.912;2023-10-13T14:57:02;23.80;95.50
40123;DHT22;25832;45.490;4.912;2023-10-13T14:59:28;23.80;95.30
40123;DHT22;25832;45.490;4.912;2023-10-13T15:01:59;23.80;95.50
40123;DHT22;25832;45.490;4.912;2023-10-13T15:04:24;23.80;95.40
40123;DHT22;25832;45.490;4.912;2023-10-13T15:06:50;23.80;95.50
40123;DHT22;25832;45.490;4.912;2023-10-13T15:09:16;23.80;95.50
40123;DHT22;25832;45.490;4.912;2023-10-13T15:11:49;23.80;95.50
40123;DHT22;25832;45.490;4.912;2023-10-13T15:14:18;23.80;95.40
40123;DHT22;25832;45.490;4.912;2023-10-13T15:16:45;23.80;95.40
40123;DHT22;25832;45.490;4.912;2023-10-13T15:19:11;23.80;95.50
40123;DHT22;25832;45.490;4.912;2023-10-13T15:21:37;23.80;95.60
40123;DHT22;25832;45.490;4.912;2023-10-13T15:24:06;23.70;95.70
40123;DHT22;25832;45.490;4.912;2023-10-13T15:26:46;23.70;95.80
40123;DHT22;25832;45.490;4.912;2023-10-13T15:29:19;23.70;96.00
40123;DHT22;25832;45.490;4.912;2023-10-13T15:31:52;23.70;95.80
40123;DHT22;25832;45.490;4.912;2023-10-13T15:34:24;23.70;95.80
40123;DHT22;25832;45.490;4.912;2023-10-13T15:36:52;23.60;95.80
40123;DHT22;25832;45.490;4.912;2023-10-13T15:39:20;23.50;96.00
40123;DHT22;25832;45.490;4.912;2023-10-13T15:41:56;23.50;96.10
40123;DHT22;25832;45.490;4.912;2023-10-13T15:44:27;23.40;96.40
40123;DHT22;25832;45.490;4.912;2023-10-13T15:46:57;23.30;96.50
40123;DHT22;25832;45.490;4.912;2023-10-13T15:49:23;23.30;96.50
40123;DHT22;25832;45.490;4.912;2023-10-13T15:51:49;23.30;96.60
40123;DHT22;25832;45.490;4.912;2023-10-13T15:54:17;23.20;96.70
40123;DHT22;25832;45.490;4.912;2023-10-13T15:56:46;23.20;96.90
40123;DHT22;25832;45.490;4.912;2023-10-13T15:59:13;23.10;97.00
40123;DHT22;25832;45.490;4.912;2023-10-13T16:01:39;23.00;96.90
40123;DHT22;25832;45.490;4.912;2023-10-13T16:04:07;23.00;97.10
40123;DHT22;25832;45.490;4.912;2023-10-13T16:06:46;23.00;97.20
40123;DHT22;25832;45.490;4.912;2023-10-13T16:09:15;23.00;96.90
40123;DHT22;25832;45.490;4.912;2023-10-13T16:11:44;22.80;97.00
40123;DHT22;25832;45.490;4.912;2023-10-13T16:14:12;22.80;97.20
40123;DHT22;25832;45.490;4.912;2023-10-13T16:16:44;22.70;97.40
40123;DHT22;25832;45.490;4.912;2023-10-13T16:19:12;22.60;97.40
40123;DHT22;25832;45.490;4.912;2023-10-13T16:21:38;22.60;97.60
40123;DHT22;25832;45.490;4.912;2023-10-13T16:24:05;22.50;97.70
40123;DHT22;25832;45.490;4.912;2023-10-13T16:26:36;22.50;97.80